sensor_id;sensor_type;location;lat;lon;timestamp;P1;durP1;ratioP1;P2;durP2;ratioP2
38226;SDS011;24026;49.446;8.576;2023-03-03T00:00:44;132.05;;;118.30;;
38226;SDS011;24026;49.446;8.576;2023-03-03T00:03:05;130.75;;;117.03;;
38226;SDS011;24026;49.446;8.576;2023-03-03T00:05:27;133.02;;;119.18;;
38226;SDS011;24026;49.446;8.576;2023-03-03T00:07:48;131.73;;;117.82;;
38226;SDS011;24026;49.446;8.576;2023-03-03T00:10:08;133.15;;;119.15;;
38226;SDS011;24026;49.446;8.576;2023-03-03T00:12:29;130.80;;;117.03;;
38226;SDS011;24026;49.446;8.576;2023-03-03T00:14:50;132.20;;;118.22;;
38226;SDS011;24026;49.446;8.576;2023-03-03T00:17:20;133.35;;;119.35;;
38226;SDS011;24026;49.446;8.576;2023-03-03T00:19:45;133.25;;;119.05;;
38226;SDS011;24026;49.446;8.576;2023-03-03T00:22:06;132.25;;;118.10;;
38226;SDS011;24026;49.446;8.576;2023-03-03T00:24:40;132.52;;;118.65;;
38226;SDS011;24026;49.446;8.576;2023-03-03T00:27:01;131.63;;;117.78;;
38226;SDS011;24026;49.446;8.576;2023-03-03T00:29:37;130.77;;;116.95;;
38226;SDS011;24026;49.446;8.576;2023-03-03T00:32:15;132.65;;;118.72;;
38226;SDS011;24026;49.446;8.576;2023-03-03T00:34:40;131.27;;;117.25;;
38226;SDS011;24026;49.446;8.576;2023-03-03T00:37:01;132.00;;;118.15;;
38226;SDS011;24026;49.446;8.576;2023-03-03T00:41:48;132.43;;;118.47;;
38226;SDS011;24026;49.446;8.576;2023-03-03T00:44:26;131.05;;;117.13;;
38226;SDS011;24026;49.446;8.576;2023-03-03T00:49:43;132.45;;;118.50;;
38226;SDS011;24026;49.446;8.576;2023-03-03T00:52:11;131.70;;;117.85;;
38226;SDS011;24026;49.446;8.576;2023-03-03T00:54:35;132.50;;;118.55;;
38226;SDS011;24026;49.446;8.576;2023-03-03T00:56:55;131.82;;;117.85;;
38226;SDS011;24026;49.446;8.576;2023-03-03T00:59:15;130.98;;;117.10;;
38226;SDS011;24026;49.446;8.576;2023-03-03T01:01:36;132.63;;;118.75;;
38226;SDS011;24026;49.446;8.576;2023-03-03T01:03:56;132.70;;;118.50;;
38226;SDS011;24026;49.446;8.576;2023-03-03T01:06:17;132.52;;;118.45;;
38226;SDS011;24026;49.446;8.576;2023-03-03T01:08:37;133.38;;;119.40;;
38226;SDS011;24026;49.446;8.576;2023-03-03T01:10:59;132.75;;;118.40;;
38226;SDS011;24026;49.446;8.576;2023-03-03T01:13:25;130.30;;;116.55;;
38226;SDS011;24026;49.446;8.576;2023-03-03T01:15:48;131.77;;;117.95;;
38226;SDS011;24026;49.446;8.576;2023-03-03T01:18:10;131.52;;;117.43;;
38226;SDS011;24026;49.446;8.576;2023-03-03T01:20:31;131.85;;;118.03;;
38226;SDS011;24026;49.446;8.576;2023-03-03T01:22:51;132.90;;;118.90;;
38226;SDS011;24026;49.446;8.576;2023-03-03T01:25:11;130.73;;;116.93;;
38226;SDS011;24026;49.446;8.576;2023-03-03T01:27:33;130.13;;;116.38;;
38226;SDS011;24026;49.446;8.576;2023-03-03T01:29:55;131.02;;;117.10;;
38226;SDS011;24026;49.446;8.576;2023-03-03T01:32:15;130.10;;;116.07;;
38226;SDS011;24026;49.446;8.576;2023-03-03T01:34:36;131.88;;;118.05;;
38226;SDS011;24026;49.446;8.576;2023-03-03T01:36:56;131.18;;;117.45;;
38226;SDS011;24026;49.446;8.576;2023-03-03T01:39:16;131.60;;;117.70;;
38226;SDS011;24026;49.446;8.576;2023-03-03T01:41:37;129.30;;;115.50;;
38226;SDS011;24026;49.446;8.576;2023-03-03T01:43:58;132.10;;;117.93;;
38226;SDS011;24026;49.446;8.576;2023-03-03T01:48:43;129.13;;;115.47;;
38226;SDS011;24026;49.446;8.576;2023-03-03T01:51:14;132.15;;;118.28;;
38226;SDS011;24026;49.446;8.576;2023-03-03T01:53:43;126.95;;;113.18;;
38226;SDS011;24026;49.446;8.576;2023-03-03T01:56:09;130.13;;;116.30;;
38226;SDS011;24026;49.446;8.576;2023-03-03T01:58:30;131.30;;;117.22;;
38226;SDS011;24026;49.446;8.576;2023-03-03T02:00:58;130.63;;;116.85;;
38226;SDS011;24026;49.446;8.576;2023-03-03T02:03:21;130.25;;;116.50;;
38226;SDS011;24026;49.446;8.576;2023-03-03T02:05:43;129.02;;;115.18;;
38226;SDS011;24026;49.446;8.576;2023-03-03T02:08:04;131.63;;;117.80;;
38226;SDS011;24026;49.446;8.576;2023-03-03T02:10:26;131.68;;;117.80;;
38226;SDS011;24026;49.446;8.576;2023-03-03T02:12:49;129.55;;;115.72;;
38226;SDS011;24026;49.446;8.576;2023-03-03T02:15:23;128.27;;;114.38;;
38226;SDS011;24026;49.446;8.576;2023-03-03T02:17:45;131.23;;;117.35;;
38226;SDS011;24026;49.446;8.576;2023-03-03T02:20:14;130.27;;;116.43;;
38226;SDS011;24026;49.446;8.576;2023-03-03T02:25:22;128.95;;;115.15;;
38226;SDS011;24026;49.446;8.576;2023-03-03T02:27:51;129.32;;;115.60;;
38226;SDS011;24026;49.446;8.576;2023-03-03T02:30:14;130.13;;;116.30;;
38226;SDS011;24026;49.446;8.576;2023-03-03T02:32:36;128.10;;;114.30;;
38226;SDS011;24026;49.446;8.576;2023-03-03T02:34:56;129.57;;;115.82;;
38226;SDS011;24026;49.446;8.576;2023-03-03T02:37:17;128.68;;;114.78;;
38226;SDS011;24026;49.446;8.576;2023-03-03T02:39:39;129.75;;;115.88;;
38226;SDS011;24026;49.446;8.576;2023-03-03T02:44:29;126.68;;;113.03;;
38226;SDS011;24026;49.446;8.576;2023-03-03T02:46:52;126.82;;;112.90;;
38226;SDS011;24026;49.446;8.576;2023-03-03T02:49:21;130.98;;;117.30;;
38226;SDS011;24026;49.446;8.576;2023-03-03T02:51:46;129.43;;;115.45;;
38226;SDS011;24026;49.446;8.576;2023-03-03T02:54:07;129.93;;;116.07;;
38226;SDS011;24026;49.446;8.576;2023-03-03T02:56:29;129.85;;;116.05;;
38226;SDS011;24026;49.446;8.576;2023-03-03T02:58:49;129.98;;;116.15;;
38226;SDS011;24026;49.446;8.576;2023-03-03T03:01:10;127.38;;;113.70;;
38226;SDS011;24026;49.446;8.576;2023-03-03T03:03:30;130.73;;;116.88;;
38226;SDS011;24026;49.446;8.576;2023-03-03T03:05:51;130.75;;;116.90;;
38226;SDS011;24026;49.446;8.576;2023-03-03T03:08:11;125.88;;;111.97;;
38226;SDS011;24026;49.446;8.576;2023-03-03T03:10:32;130.38;;;116.45;;
38226;SDS011;24026;49.446;8.576;2023-03-03T03:12:52;130.38;;;116.47;;
38226;SDS011;24026;49.446;8.576;2023-03-03T03:15:12;129.27;;;115.50;;
38226;SDS011;24026;49.446;8.576;2023-03-03T03:17:36;128.65;;;114.63;;
38226;SDS011;24026;49.446;8.576;2023-03-03T03:19:57;129.43;;;115.60;;
38226;SDS011;24026;49.446;8.576;2023-03-03T03:22:18;126.50;;;112.97;;
38226;SDS011;24026;49.446;8.576;2023-03-03T03:24:38;129.73;;;116.03;;
38226;SDS011;24026;49.446;8.576;2023-03-03T03:26:59;129.18;;;115.47;;
38226;SDS011;24026;49.446;8.576;2023-03-03T03:29:19;126.72;;;113.05;;
38226;SDS011;24026;49.446;8.576;2023-03-03T03:31:39;128.73;;;115.03;;
38226;SDS011;24026;49.446;8.576;2023-03-03T03:34:02;126.00;;;112.40;;
38226;SDS011;24026;49.446;8.576;2023-03-03T03:36:23;128.70;;;114.93;;
38226;SDS011;24026;49.446;8.576;2023-03-03T03:38:43;127.35;;;113.72;;
38226;SDS011;24026;49.446;8.576;2023-03-03T03:41:04;125.65;;;112.10;;
38226;SDS011;24026;49.446;8.576;2023-03-03T03:43:25;130.57;;;116.57;;
38226;SDS011;24026;49.446;8.576;2023-03-03T03:45:46;129.60;;;115.78;;
38226;SDS011;24026;49.446;8.576;2023-03-03T03:48:06;129.88;;;115.95;;
38226;SDS011;24026;49.446;8.576;2023-03-03T03:50:27;128.48;;;114.78;;
38226;SDS011;24026;49.446;8.576;2023-03-03T03:52:47;128.20;;;114.45;;
38226;SDS011;24026;49.446;8.576;2023-03-03T03:55:08;129.90;;;116.13;;
38226;SDS011;24026;49.446;8.576;2023-03-03T03:57:28;129.35;;;115.70;;
38226;SDS011;24026;49.446;8.576;2023-03-03T03:59:49;129.38;;;115.18;;
38226;SDS011;24026;49.446;8.576;2023-03-03T04:02:09;129.05;;;115.13;;
38226;SDS011;24026;49.446;8.576;2023-03-03T04:04:30;130.45;;;116.45;;
38226;SDS011;24026;49.446;8.576;2023-03-03T04:06:50;130.68;;;116.75;;
38226;SDS011;24026;49.446;8.576;2023-03-03T04:09:11;129.68;;;115.70;;
38226;SDS011;24026;49.446;8.576;2023-03-03T04:11:31;128.48;;;114.70;;
38226;SDS011;24026;49.446;8.576;2023-03-03T04:13:52;131.15;;;117.25;;
38226;SDS011;24026;49.446;8.576;2023-03-03T04:16:12;127.57;;;113.85;;
38226;SDS011;24026;49.446;8.576;2023-03-03T04:18:32;131.10;;;117.10;;
38226;SDS011;24026;49.446;8.576;2023-03-03T04:20:53;129.82;;;116.05;;
38226;SDS011;24026;49.446;8.576;2023-03-03T04:23:14;127.18;;;113.40;;
38226;SDS011;24026;49.446;8.576;2023-03-03T04:25:34;129.40;;;115.60;;
38226;SDS011;24026;49.446;8.576;2023-03-03T04:27:55;130.48;;;116.60;;
38226;SDS011;24026;49.446;8.576;2023-03-03T04:30:15;129.43;;;115.63;;
38226;SDS011;24026;49.446;8.576;2023-03-03T04:32:36;125.40;;;111.65;;
38226;SDS011;24026;49.446;8.576;2023-03-03T04:34:56;128.60;;;114.85;;
38226;SDS011;24026;49.446;8.576;2023-03-03T04:37:17;127.97;;;114.07;;
38226;SDS011;24026;49.446;8.576;2023-03-03T04:39:37;125.72;;;112.20;;
38226;SDS011;24026;49.446;8.576;2023-03-03T04:41:57;129.30;;;115.30;;
38226;SDS011;24026;49.446;8.576;2023-03-03T04:44:18;127.97;;;113.88;;
38226;SDS011;24026;49.446;8.576;2023-03-03T04:46:38;128.48;;;114.78;;
38226;SDS011;24026;49.446;8.576;2023-03-03T04:48:59;128.00;;;114.22;;
38226;SDS011;24026;49.446;8.576;2023-03-03T04:51:19;126.20;;;112.45;;
38226;SDS011;24026;49.446;8.576;2023-03-03T04:53:40;127.90;;;114.18;;
38226;SDS011;24026;49.446;8.576;2023-03-03T04:56:00;127.93;;;114.22;;
38226;SDS011;24026;49.446;8.576;2023-03-03T04:58:21;124.63;;;111.07;;
38226;SDS011;24026;49.446;8.576;2023-03-03T05:00:41;129.88;;;115.88;;
38226;SDS011;24026;49.446;8.576;2023-03-03T05:03:01;125.63;;;112.03;;
38226;SDS011;24026;49.446;8.576;2023-03-03T05:05:22;128.60;;;114.88;;
38226;SDS011;24026;49.446;8.576;2023-03-03T05:07:42;128.10;;;114.40;;
38226;SDS011;24026;49.446;8.576;2023-03-03T05:10:03;125.65;;;112.18;;
38226;SDS011;24026;49.446;8.576;2023-03-03T05:12:24;127.38;;;113.15;;
38226;SDS011;24026;49.446;8.576;2023-03-03T05:14:44;129.18;;;115.32;;
38226;SDS011;24026;49.446;8.576;2023-03-03T05:17:04;131.00;;;117.28;;
38226;SDS011;24026;49.446;8.576;2023-03-03T05:19:25;130.25;;;116.68;;
38226;SDS011;24026;49.446;8.576;2023-03-03T05:21:45;130.50;;;116.70;;
38226;SDS011;24026;49.446;8.576;2023-03-03T05:24:06;127.82;;;114.25;;
38226;SDS011;24026;49.446;8.576;2023-03-03T05:26:26;130.95;;;117.20;;
38226;SDS011;24026;49.446;8.576;2023-03-03T05:28:47;130.68;;;116.97;;
38226;SDS011;24026;49.446;8.576;2023-03-03T05:31:07;131.15;;;117.55;;
38226;SDS011;24026;49.446;8.576;2023-03-03T05:33:27;129.95;;;116.15;;
38226;SDS011;24026;49.446;8.576;2023-03-03T05:35:52;132.20;;;118.43;;
38226;SDS011;24026;49.446;8.576;2023-03-03T05:38:13;131.57;;;117.72;;
38226;SDS011;24026;49.446;8.576;2023-03-03T05:40:33;130.18;;;116.60;;
38226;SDS011;24026;49.446;8.576;2023-03-03T05:42:54;131.40;;;117.68;;
38226;SDS011;24026;49.446;8.576;2023-03-03T05:45:14;132.07;;;118.50;;
38226;SDS011;24026;49.446;8.576;2023-03-03T05:47:35;130.00;;;116.22;;
38226;SDS011;24026;49.446;8.576;2023-03-03T05:49:55;132.70;;;118.93;;
38226;SDS011;24026;49.446;8.576;2023-03-03T05:52:15;132.55;;;118.75;;
38226;SDS011;24026;49.446;8.576;2023-03-03T05:54:36;133.20;;;119.38;;
38226;SDS011;24026;49.446;8.576;2023-03-03T05:56:56;132.63;;;118.88;;
38226;SDS011;24026;49.446;8.576;2023-03-03T05:59:17;133.25;;;119.55;;
38226;SDS011;24026;49.446;8.576;2023-03-03T06:01:39;130.48;;;116.80;;
38226;SDS011;24026;49.446;8.576;2023-03-03T06:03:59;133.52;;;119.90;;
38226;SDS011;24026;49.446;8.576;2023-03-03T06:06:20;133.65;;;119.72;;
38226;SDS011;24026;49.446;8.576;2023-03-03T06:08:40;133.93;;;120.22;;
38226;SDS011;24026;49.446;8.576;2023-03-03T06:11:01;134.95;;;121.22;;
38226;SDS011;24026;49.446;8.576;2023-03-03T06:13:21;132.40;;;118.78;;
38226;SDS011;24026;49.446;8.576;2023-03-03T06:15:41;135.75;;;121.95;;
38226;SDS011;24026;49.446;8.576;2023-03-03T06:18:02;134.10;;;120.47;;
38226;SDS011;24026;49.446;8.576;2023-03-03T06:20:22;132.95;;;119.07;;
38226;SDS011;24026;49.446;8.576;2023-03-03T06:22:43;134.00;;;120.35;;
38226;SDS011;24026;49.446;8.576;2023-03-03T06:25:03;134.02;;;120.18;;
38226;SDS011;24026;49.446;8.576;2023-03-03T06:27:24;132.40;;;118.72;;
38226;SDS011;24026;49.446;8.576;2023-03-03T06:29:44;135.90;;;121.88;;
38226;SDS011;24026;49.446;8.576;2023-03-03T06:32:05;136.23;;;122.47;;
38226;SDS011;24026;49.446;8.576;2023-03-03T06:34:25;136.88;;;122.68;;
38226;SDS011;24026;49.446;8.576;2023-03-03T06:36:46;137.57;;;123.40;;
38226;SDS011;24026;49.446;8.576;2023-03-03T06:39:06;136.25;;;122.47;;
38226;SDS011;24026;49.446;8.576;2023-03-03T06:41:27;137.60;;;123.55;;
38226;SDS011;24026;49.446;8.576;2023-03-03T06:43:47;140.20;;;126.00;;
38226;SDS011;24026;49.446;8.576;2023-03-03T06:46:08;140.75;;;126.32;;
38226;SDS011;24026;49.446;8.576;2023-03-03T06:48:28;140.10;;;125.63;;
38226;SDS011;24026;49.446;8.576;2023-03-03T06:50:50;138.52;;;124.30;;
38226;SDS011;24026;49.446;8.576;2023-03-03T06:53:11;138.25;;;124.20;;
38226;SDS011;24026;49.446;8.576;2023-03-03T06:55:33;140.32;;;126.03;;
38226;SDS011;24026;49.446;8.576;2023-03-03T06:57:54;139.68;;;125.20;;
38226;SDS011;24026;49.446;8.576;2023-03-03T07:00:18;140.10;;;125.43;;
38226;SDS011;24026;49.446;8.576;2023-03-03T07:03:07;140.45;;;126.07;;
38226;SDS011;24026;49.446;8.576;2023-03-03T07:05:34;138.20;;;123.80;;
38226;SDS011;24026;49.446;8.576;2023-03-03T07:07:55;140.77;;;126.38;;
38226;SDS011;24026;49.446;8.576;2023-03-03T07:10:21;140.10;;;125.65;;
38226;SDS011;24026;49.446;8.576;2023-03-03T07:12:45;138.45;;;124.28;;
38226;SDS011;24026;49.446;8.576;2023-03-03T07:15:14;140.60;;;125.70;;
38226;SDS011;24026;49.446;8.576;2023-03-03T07:17:41;143.38;;;128.63;;
38226;SDS011;24026;49.446;8.576;2023-03-03T07:20:10;142.65;;;128.10;;
38226;SDS011;24026;49.446;8.576;2023-03-03T07:22:37;141.38;;;126.65;;
38226;SDS011;24026;49.446;8.576;2023-03-03T07:24:58;144.70;;;130.05;;
38226;SDS011;24026;49.446;8.576;2023-03-03T07:27:24;144.70;;;129.90;;
38226;SDS011;24026;49.446;8.576;2023-03-03T07:29:50;142.60;;;128.02;;
38226;SDS011;24026;49.446;8.576;2023-03-03T07:32:28;143.43;;;128.55;;
38226;SDS011;24026;49.446;8.576;2023-03-03T07:34:54;142.98;;;128.20;;
38226;SDS011;24026;49.446;8.576;2023-03-03T07:37:16;145.15;;;130.48;;
38226;SDS011;24026;49.446;8.576;2023-03-03T07:39:44;144.52;;;129.82;;
38226;SDS011;24026;49.446;8.576;2023-03-03T07:42:13;140.55;;;126.18;;
38226;SDS011;24026;49.446;8.576;2023-03-03T07:44:42;140.25;;;125.85;;
38226;SDS011;24026;49.446;8.576;2023-03-03T07:47:14;139.70;;;125.43;;
38226;SDS011;24026;49.446;8.576;2023-03-03T07:49:44;141.05;;;126.57;;
38226;SDS011;24026;49.446;8.576;2023-03-03T07:52:25;140.02;;;125.82;;
38226;SDS011;24026;49.446;8.576;2023-03-03T07:54:48;138.90;;;124.25;;
38226;SDS011;24026;49.446;8.576;2023-03-03T07:59:49;141.18;;;126.82;;
38226;SDS011;24026;49.446;8.576;2023-03-03T08:02:19;140.35;;;125.72;;
38226;SDS011;24026;49.446;8.576;2023-03-03T08:04:52;139.60;;;125.10;;
38226;SDS011;24026;49.446;8.576;2023-03-03T08:07:15;141.50;;;126.60;;
38226;SDS011;24026;49.446;8.576;2023-03-03T08:09:37;140.25;;;125.93;;
38226;SDS011;24026;49.446;8.576;2023-03-03T08:14:35;220.40;;;136.63;;
38226;SDS011;24026;49.446;8.576;2023-03-03T08:16:58;181.98;;;132.88;;
38226;SDS011;24026;49.446;8.576;2023-03-03T08:19:19;153.18;;;129.05;;
38226;SDS011;24026;49.446;8.576;2023-03-03T08:21:40;148.88;;;128.13;;
38226;SDS011;24026;49.446;8.576;2023-03-03T08:24:00;154.70;;;127.10;;
38226;SDS011;24026;49.446;8.576;2023-03-03T08:26:21;152.52;;;125.95;;
38226;SDS011;24026;49.446;8.576;2023-03-03T08:28:42;143.90;;;127.80;;
38226;SDS011;24026;49.446;8.576;2023-03-03T08:31:03;154.30;;;127.38;;
38226;SDS011;24026;49.446;8.576;2023-03-03T08:33:23;160.40;;;127.53;;
38226;SDS011;24026;49.446;8.576;2023-03-03T08:35:45;147.95;;;127.05;;
38226;SDS011;24026;49.446;8.576;2023-03-03T08:38:05;154.32;;;124.93;;
38226;SDS011;24026;49.446;8.576;2023-03-03T08:40:26;143.07;;;125.15;;
38226;SDS011;24026;49.446;8.576;2023-03-03T08:42:47;150.57;;;125.05;;
38226;SDS011;24026;49.446;8.576;2023-03-03T08:45:07;152.35;;;126.30;;
38226;SDS011;24026;49.446;8.576;2023-03-03T08:47:28;146.98;;;125.43;;
38226;SDS011;24026;49.446;8.576;2023-03-03T08:49:48;149.35;;;126.28;;
38226;SDS011;24026;49.446;8.576;2023-03-03T08:52:09;145.13;;;126.68;;
38226;SDS011;24026;49.446;8.576;2023-03-03T08:54:29;144.13;;;128.23;;
38226;SDS011;24026;49.446;8.576;2023-03-03T08:56:50;155.95;;;127.90;;
38226;SDS011;24026;49.446;8.576;2023-03-03T08:59:10;147.30;;;128.73;;
38226;SDS011;24026;49.446;8.576;2023-03-03T09:01:32;142.90;;;126.72;;
38226;SDS011;24026;49.446;8.576;2023-03-03T09:03:53;144.68;;;128.68;;
38226;SDS011;24026;49.446;8.576;2023-03-03T09:06:14;148.43;;;129.63;;
38226;SDS011;24026;49.446;8.576;2023-03-03T09:08:34;143.75;;;126.82;;
38226;SDS011;24026;49.446;8.576;2023-03-03T09:10:55;143.45;;;128.07;;
38226;SDS011;24026;49.446;8.576;2023-03-03T09:13:16;143.43;;;127.50;;
38226;SDS011;24026;49.446;8.576;2023-03-03T09:15:38;148.95;;;128.82;;
38226;SDS011;24026;49.446;8.576;2023-03-03T09:18:20;147.32;;;128.35;;
38226;SDS011;24026;49.446;8.576;2023-03-03T09:21:42;142.98;;;127.35;;
38226;SDS011;24026;49.446;8.576;2023-03-03T09:23:57;143.55;;;127.88;;
38226;SDS011;24026;49.446;8.576;2023-03-03T09:31:43;142.90;;;127.10;;
38226;SDS011;24026;49.446;8.576;2023-03-03T09:36:44;142.10;;;126.35;;
38226;SDS011;24026;49.446;8.576;2023-03-03T09:39:15;143.32;;;127.65;;
38226;SDS011;24026;49.446;8.576;2023-03-03T09:58:00;153.50;;;127.55;;
38226;SDS011;24026;49.446;8.576;2023-03-03T10:03:13;167.13;;;129.13;;
38226;SDS011;24026;49.446;8.576;2023-03-03T10:22:46;158.32;;;130.55;;
38226;SDS011;24026;49.446;8.576;2023-03-03T10:25:16;164.45;;;129.43;;
38226;SDS011;24026;49.446;8.576;2023-03-03T10:30:41;166.27;;;130.23;;
38226;SDS011;24026;49.446;8.576;2023-03-03T10:36:26;155.35;;;129.98;;
38226;SDS011;24026;49.446;8.576;2023-03-03T10:52:46;148.68;;;127.90;;
38226;SDS011;24026;49.446;8.576;2023-03-03T11:08:21;148.85;;;127.15;;
38226;SDS011;24026;49.446;8.576;2023-03-03T11:13:34;147.65;;;127.93;;
38226;SDS011;24026;49.446;8.576;2023-03-03T11:21:41;149.68;;;128.25;;
38226;SDS011;24026;49.446;8.576;2023-03-03T11:26:34;150.55;;;127.35;;
38226;SDS011;24026;49.446;8.576;2023-03-03T11:29:09;147.52;;;126.95;;
38226;SDS011;24026;49.446;8.576;2023-03-03T11:31:47;151.07;;;127.55;;
38226;SDS011;24026;49.446;8.576;2023-03-03T11:39:12;146.15;;;127.80;;
38226;SDS011;24026;49.446;8.576;2023-03-03T11:41:41;155.70;;;127.28;;
38226;SDS011;24026;49.446;8.576;2023-03-03T11:47:04;142.50;;;126.63;;
38226;SDS011;24026;49.446;8.576;2023-03-03T11:49:37;143.30;;;126.85;;
38226;SDS011;24026;49.446;8.576;2023-03-03T11:54:45;148.40;;;127.88;;
38226;SDS011;24026;49.446;8.576;2023-03-03T11:57:26;145.75;;;127.25;;
38226;SDS011;24026;49.446;8.576;2023-03-03T12:05:37;142.52;;;126.63;;
38226;SDS011;24026;49.446;8.576;2023-03-03T12:27:28;143.57;;;127.95;;
38226;SDS011;24026;49.446;8.576;2023-03-03T12:30:02;144.52;;;127.97;;
38226;SDS011;24026;49.446;8.576;2023-03-03T12:35:47;142.32;;;127.10;;
38226;SDS011;24026;49.446;8.576;2023-03-03T12:43:51;143.73;;;128.48;;
38226;SDS011;24026;49.446;8.576;2023-03-03T12:48:40;142.18;;;127.07;;
38226;SDS011;24026;49.446;8.576;2023-03-03T12:56:23;144.07;;;128.75;;
38226;SDS011;24026;49.446;8.576;2023-03-03T12:59:02;144.10;;;128.95;;
38226;SDS011;24026;49.446;8.576;2023-03-03T13:07:06;142.48;;;127.18;;
38226;SDS011;24026;49.446;8.576;2023-03-03T13:12:40;140.85;;;125.95;;
38226;SDS011;24026;49.446;8.576;2023-03-03T13:15:06;141.27;;;126.47;;
38226;SDS011;24026;49.446;8.576;2023-03-03T13:22:49;141.75;;;126.95;;
38226;SDS011;24026;49.446;8.576;2023-03-03T13:25:30;143.02;;;127.80;;
38226;SDS011;24026;49.446;8.576;2023-03-03T13:28:01;143.15;;;127.85;;
38226;SDS011;24026;49.446;8.576;2023-03-03T13:30:42;141.35;;;126.30;;
38226;SDS011;24026;49.446;8.576;2023-03-03T13:33:13;140.00;;;125.13;;
38226;SDS011;24026;49.446;8.576;2023-03-03T13:35:45;141.63;;;126.65;;
38226;SDS011;24026;49.446;8.576;2023-03-03T13:38:37;140.88;;;126.18;;
38226;SDS011;24026;49.446;8.576;2023-03-03T13:43:42;140.20;;;125.63;;
38226;SDS011;24026;49.446;8.576;2023-03-03T13:49:09;139.93;;;125.32;;
38226;SDS011;24026;49.446;8.576;2023-03-03T13:54:39;140.25;;;125.40;;
38226;SDS011;24026;49.446;8.576;2023-03-03T14:02:20;141.15;;;126.07;;
38226;SDS011;24026;49.446;8.576;2023-03-03T14:05:15;139.95;;;125.10;;
38226;SDS011;24026;49.446;8.576;2023-03-03T14:15:32;142.02;;;127.22;;
38226;SDS011;24026;49.446;8.576;2023-03-03T14:20:29;141.15;;;126.72;;
38226;SDS011;24026;49.446;8.576;2023-03-03T14:22:54;140.02;;;125.68;;
38226;SDS011;24026;49.446;8.576;2023-03-03T14:25:16;144.27;;;129.57;;
38226;SDS011;24026;49.446;8.576;2023-03-03T14:32:42;138.48;;;124.13;;
38226;SDS011;24026;49.446;8.576;2023-03-03T14:35:21;141.82;;;127.32;;
38226;SDS011;24026;49.446;8.576;2023-03-03T14:37:45;140.50;;;126.20;;
38226;SDS011;24026;49.446;8.576;2023-03-03T14:42:46;140.30;;;125.93;;
38226;SDS011;24026;49.446;8.576;2023-03-03T14:47:44;141.25;;;126.30;;
38226;SDS011;24026;49.446;8.576;2023-03-03T14:50:10;142.77;;;128.07;;
38226;SDS011;24026;49.446;8.576;2023-03-03T14:53:42;142.23;;;127.60;;
38226;SDS011;24026;49.446;8.576;2023-03-03T14:55:51;139.27;;;124.88;;
38226;SDS011;24026;49.446;8.576;2023-03-03T15:01:06;139.65;;;125.25;;
38226;SDS011;24026;49.446;8.576;2023-03-03T15:04:43;139.95;;;125.47;;
38226;SDS011;24026;49.446;8.576;2023-03-03T15:11:45;141.07;;;126.57;;
38226;SDS011;24026;49.446;8.576;2023-03-03T15:14:15;142.88;;;128.07;;
38226;SDS011;24026;49.446;8.576;2023-03-03T15:16:38;141.75;;;127.05;;
38226;SDS011;24026;49.446;8.576;2023-03-03T15:19:09;142.95;;;128.23;;
38226;SDS011;24026;49.446;8.576;2023-03-03T15:21:34;141.13;;;126.53;;
38226;SDS011;24026;49.446;8.576;2023-03-03T15:24:06;139.07;;;124.78;;
38226;SDS011;24026;49.446;8.576;2023-03-03T15:29:27;139.48;;;125.15;;
38226;SDS011;24026;49.446;8.576;2023-03-03T15:32:18;141.15;;;126.75;;
38226;SDS011;24026;49.446;8.576;2023-03-03T15:40:26;140.20;;;125.82;;
38226;SDS011;24026;49.446;8.576;2023-03-03T15:45:49;139.02;;;124.72;;
38226;SDS011;24026;49.446;8.576;2023-03-03T15:54:11;141.32;;;126.75;;
38226;SDS011;24026;49.446;8.576;2023-03-03T15:56:55;141.18;;;126.32;;
38226;SDS011;24026;49.446;8.576;2023-03-03T16:04:33;146.38;;;131.77;;
38226;SDS011;24026;49.446;8.576;2023-03-03T16:07:13;145.23;;;130.63;;
38226;SDS011;24026;49.446;8.576;2023-03-03T16:10:03;143.88;;;129.52;;
38226;SDS011;24026;49.446;8.576;2023-03-03T16:15:12;145.35;;;130.95;;
38226;SDS011;24026;49.446;8.576;2023-03-03T16:20:32;145.25;;;130.77;;
38226;SDS011;24026;49.446;8.576;2023-03-03T16:23:19;144.85;;;130.27;;
38226;SDS011;24026;49.446;8.576;2023-03-03T16:28:42;144.13;;;129.57;;
38226;SDS011;24026;49.446;8.576;2023-03-03T16:31:29;144.38;;;129.90;;
38226;SDS011;24026;49.446;8.576;2023-03-03T16:36:35;143.60;;;129.07;;
38226;SDS011;24026;49.446;8.576;2023-03-03T16:39:03;144.18;;;129.52;;
38226;SDS011;24026;49.446;8.576;2023-03-03T16:41:36;143.30;;;128.82;;
38226;SDS011;24026;49.446;8.576;2023-03-03T16:46:50;140.77;;;126.50;;
38226;SDS011;24026;49.446;8.576;2023-03-03T16:49:20;143.27;;;128.73;;
38226;SDS011;24026;49.446;8.576;2023-03-03T16:51:50;143.00;;;128.63;;
38226;SDS011;24026;49.446;8.576;2023-03-03T16:56:47;142.98;;;128.57;;
38226;SDS011;24026;49.446;8.576;2023-03-03T17:04:32;141.47;;;127.27;;
38226;SDS011;24026;49.446;8.576;2023-03-03T17:06:56;141.70;;;127.22;;
38226;SDS011;24026;49.446;8.576;2023-03-03T17:09:22;139.60;;;125.53;;
38226;SDS011;24026;49.446;8.576;2023-03-03T17:12:07;140.13;;;126.15;;
38226;SDS011;24026;49.446;8.576;2023-03-03T17:17:38;139.82;;;125.63;;
38226;SDS011;24026;49.446;8.576;2023-03-03T17:25:21;140.70;;;126.43;;
38226;SDS011;24026;49.446;8.576;2023-03-03T17:27:53;137.98;;;123.82;;
38226;SDS011;24026;49.446;8.576;2023-03-03T17:30:26;140.35;;;125.80;;
38226;SDS011;24026;49.446;8.576;2023-03-03T17:33:09;139.68;;;125.47;;
38226;SDS011;24026;49.446;8.576;2023-03-03T17:36:06;139.80;;;125.50;;
38226;SDS011;24026;49.446;8.576;2023-03-03T17:45:52;136.60;;;122.88;;
38226;SDS011;24026;49.446;8.576;2023-03-03T17:48:21;139.27;;;124.97;;
38226;SDS011;24026;49.446;8.576;2023-03-03T17:51:04;140.25;;;126.05;;
38226;SDS011;24026;49.446;8.576;2023-03-03T17:59:50;138.52;;;124.32;;
38226;SDS011;24026;49.446;8.576;2023-03-03T18:13:33;137.60;;;123.65;;
38226;SDS011;24026;49.446;8.576;2023-03-03T18:16:45;138.20;;;124.07;;
38226;SDS011;24026;49.446;8.576;2023-03-03T18:21:27;138.55;;;124.55;;
38226;SDS011;24026;49.446;8.576;2023-03-03T18:24:12;138.32;;;124.13;;
38226;SDS011;24026;49.446;8.576;2023-03-03T18:26:52;137.82;;;123.63;;
38226;SDS011;24026;49.446;8.576;2023-03-03T18:39:23;136.40;;;122.35;;
38226;SDS011;24026;49.446;8.576;2023-03-03T18:44:35;133.27;;;119.43;;
38226;SDS011;24026;49.446;8.576;2023-03-03T18:46:55;133.70;;;119.68;;
38226;SDS011;24026;49.446;8.576;2023-03-03T18:49:17;133.07;;;119.35;;
38226;SDS011;24026;49.446;8.576;2023-03-03T18:57:28;134.23;;;120.05;;
38226;SDS011;24026;49.446;8.576;2023-03-03T18:59:52;133.02;;;119.03;;